Time;durP1;ratioP1;P1;durP2;ratioP2;P2;SDS_P1;SDS_P2;PMS_P1;PMS_P2;Temp;Humidity;BMP_temperature;BMP_pressure;BME280_temperature;BME280_humidity;BME280_pressure;Samples;Min_cycle;Max_cycle;Signal;HPM_P1;HPM_P2
2023/05/18 00:00:02;;;;;;;7.25;3.35;;;9.10;99.90;;;;;;5018944;28;19930;-81
2023/05/18 00:02:29;;;;;;;6.78;3.05;;;9.10;99.90;;;;;;5019760;28;20038;-85
2023/05/18 00:05:10;;;;;;;6.90;3.08;;;9.10;99.90;;;;;;5021259;28;20509;-84
2023/05/18 00:07:53;;;;;;;7.93;3.33;;;9.10;99.90;;;;;;5039400;28;20064;-80
2023/05/18 00:10:42;;;;;;;6.38;3.13;;;9.10;99.90;;;;;;5024249;28;20538;-83
2023/05/18 00:13:41;;;;;;;6.85;3.38;;;9.00;99.90;;;;;;5021811;28;20060;-83
2023/05/18 00:16:29;;;;;;;6.10;3.05;;;9.00;99.90;;;;;;5025742;28;20062;-83
2023/05/18 00:19:03;;;;;;;6.28;3.13;;;9.00;99.90;;;;;;5023573;28;20109;-82
2023/05/18 00:21:32;;;;;;;6.22;3.08;;;8.90;99.90;;;;;;5022382;28;20303;-83
2023/05/18 00:23:59;;;;;;;8.07;2.90;;;8.90;99.90;;;;;;5020235;28;20433;-87
2023/05/18 00:26:26;;;;;;;7.65;3.45;;;8.90;99.90;;;;;;5032239;28;20065;-82
2023/05/18 00:28:52;;;;;;;5.90;3.13;;;8.80;99.90;;;;;;5021613;28;20083;-82
2023/05/18 00:31:19;;;;;;;6.40;3.00;;;8.80;99.90;;;;;;5024985;28;20050;-84
2023/05/18 00:33:46;;;;;;;7.82;3.25;;;8.80;99.90;;;;;;5011595;28;20383;-84
2023/05/18 00:36:13;;;;;;;11.48;3.83;;;8.70;99.90;;;;;;5016403;28;20043;-83
2023/05/18 00:38:39;;;;;;;7.90;3.15;;;8.70;99.90;;;;;;5019503;28;20042;-87
2023/05/18 00:41:06;;;;;;;7.40;3.35;;;8.70;99.90;;;;;;5018513;28;20055;-82
2023/05/18 00:43:33;;;;;;;8.80;3.60;;;8.70;99.90;;;;;;5017342;28;20045;-84
2023/05/18 00:46:00;;;;;;;6.22;3.55;;;8.60;99.90;;;;;;5018997;28;20077;-84
2023/05/18 00:48:26;;;;;;;6.75;3.00;;;8.60;99.90;;;;;;5018731;28;20073;-83
2023/05/18 00:50:53;;;;;;;9.07;3.40;;;8.50;99.90;;;;;;5025523;28;20046;-84
2023/05/18 00:53:20;;;;;;;5.32;2.83;;;8.50;99.90;;;;;;5027373;28;20058;-85
2023/05/18 00:55:47;;;;;;;7.05;3.47;;;8.50;99.90;;;;;;5019401;28;20053;-85
2023/05/18 00:58:14;;;;;;;7.18;3.42;;;8.60;99.90;;;;;;5019346;28;20074;-85
2023/05/18 01:00:41;;;;;;;6.97;2.95;;;8.60;99.90;;;;;;5015845;28;20077;-83
2023/05/18 01:03:09;;;;;;;8.00;4.03;;;8.60;99.90;;;;;;5016231;28;20490;-85
2023/05/18 01:05:36;;;;;;;4.63;3.10;;;8.60;99.90;;;;;;5017830;28;20069;-84
2023/05/18 01:08:04;;;;;;;8.27;3.97;;;8.60;99.90;;;;;;5019719;28;20513;-84
2023/05/18 01:10:35;;;;;;;4.57;2.88;;;8.60;99.90;;;;;;5035479;28;20050;-83
2023/05/18 01:13:05;;;;;;;5.75;2.92;;;8.60;99.90;;;;;;5013358;28;20046;-86
2023/05/18 01:15:36;;;;;;;;;;;8.60;99.90;;;;;;5014278;28;20042;-82
2023/05/18 01:18:30;;;;;;;8.48;3.70;;;8.60;99.90;;;;;;5017770;28;19949;-83
2023/05/18 01:21:18;;;;;;;6.60;3.10;;;8.60;99.90;;;;;;5039003;28;20037;-85
2023/05/18 01:24:35;;;;;;;;;;;;;;;;;;;;;
2023/05/18 01:27:54;;;;;;;9.15;3.45;;;8.60;99.90;;;;;;5017287;28;20093;-83
2023/05/18 01:30:23;;;;;;;7.50;3.15;;;8.60;99.90;;;;;;5020467;28;20053;-81
2023/05/18 01:32:51;;;;;;;4.68;3.03;;;8.60;99.90;;;;;;5021971;28;20050;-85
2023/05/18 01:35:17;;;;;;;4.90;3.13;;;8.60;99.90;;;;;;5020123;28;20042;-85
2023/05/18 01:37:44;;;;;;;5.80;3.13;;;8.60;99.90;;;;;;5022946;28;20513;-85
2023/05/18 01:40:11;;;;;;;4.43;3.10;;;8.60;99.90;;;;;;5022830;28;20136;-85
2023/05/18 01:42:45;;;;;;;10.57;3.20;;;8.60;99.90;;;;;;5029704;28;20134;-86
2023/05/18 01:45:20;;;;;;;7.50;3.20;;;8.60;99.90;;;;;;5022894;28;20046;-84
2023/05/18 01:47:49;;;;;;;4.15;2.70;;;8.60;99.90;;;;;;5023443;28;20486;-83
2023/05/18 01:50:21;;;;;;;6.65;2.92;;;8.60;99.90;;;;;;5020512;28;20053;-84
2023/05/18 01:52:57;;;;;;;6.05;3.22;;;8.60;99.90;;;;;;5016327;28;20038;-84
2023/05/18 01:55:27;;;;;;;3.45;2.78;;;8.60;99.90;;;;;;5017866;28;20043;-81
2023/05/18 01:57:56;;;;;;;6.03;2.65;;;8.60;99.90;;;;;;5011162;28;20038;-84
2023/05/18 02:00:23;;;;;;;7.10;3.00;;;8.50;99.90;;;;;;5033930;28;20050;-83
2023/05/18 02:02:50;;;;;;;6.88;3.22;;;8.50;99.90;;;;;;5012047;28;20125;-84
2023/05/18 02:05:16;;;;;;;8.88;3.63;;;8.50;99.90;;;;;;5015794;28;20046;-84
2023/05/18 02:07:46;;;;;;;6.43;3.13;;;8.50;99.90;;;;;;5016285;28;20045;-84
2023/05/18 02:10:13;;;;;;;6.97;3.40;;;8.50;99.90;;;;;;5015891;28;20050;-84
2023/05/18 02:12:40;;;;;;;7.40;2.85;;;8.50;99.90;;;;;;5019492;28;20046;-85
2023/05/18 02:15:07;;;;;;;4.07;2.95;;;8.50;99.90;;;;;;5011721;28;20109;-82
2023/05/18 02:17:38;;;;;;;8.73;3.40;;;8.50;99.90;;;;;;5009304;28;20046;-83
2023/05/18 02:20:06;;;;;;;8.07;3.83;;;8.40;99.90;;;;;;5013096;28;20094;-85
2023/05/18 02:22:33;;;;;;;7.05;3.28;;;8.40;99.90;;;;;;5018546;28;20054;-83
2023/05/18 02:25:01;;;;;;;5.32;3.20;;;8.40;99.90;;;;;;5013778;28;20050;-83
2023/05/18 02:27:27;;;;;;;3.95;3.10;;;8.40;99.90;;;;;;5006435;28;20073;-84
2023/05/18 02:29:54;;;;;;;7.18;3.15;;;8.40;99.90;;;;;;5008129;28;20074;-84
2023/05/18 02:32:22;;;;;;;5.18;3.15;;;8.40;99.90;;;;;;5014710;28;20112;-84
2023/05/18 02:34:52;;;;;;;4.78;2.88;;;8.30;99.90;;;;;;5011142;28;20074;-83
2023/05/18 02:37:21;;;;;;;6.47;3.20;;;8.30;99.90;;;;;;5021704;28;20046;-84
2023/05/18 02:39:55;;;;;;;7.47;4.05;;;8.30;99.90;;;;;;5086062;27;1217161;-82
2023/05/18 02:42:22;;;;;;;8.70;3.97;;;8.30;99.90;;;;;;5106897;28;20294;-82
2023/05/18 02:44:49;;;;;;;5.07;3.38;;;8.20;99.90;;;;;;5092093;28;20072;-82
2023/05/18 02:47:16;;;;;;;10.60;3.53;;;8.20;99.90;;;;;;5071540;28;20052;-81
2023/05/18 02:49:42;;;;;;;8.52;3.90;;;8.10;99.90;;;;;;5091324;28;20056;-83
2023/05/18 02:52:09;;;;;;;7.45;4.00;;;8.00;99.90;;;;;;5088285;28;20044;-81
2023/05/18 02:54:36;;;;;;;8.95;4.20;;;7.90;99.90;;;;;;5082026;28;20063;-82
2023/05/18 02:57:02;;;;;;;8.77;3.67;;;7.70;99.90;;;;;;5073662;28;20049;-84
2023/05/18 02:59:30;;;;;;;7.95;3.85;;;7.60;99.90;;;;;;5092641;28;20090;-82
2023/05/18 03:01:56;;;;;;;8.50;3.95;;;7.50;99.90;;;;;;5070733;28;20112;-83
2023/05/18 03:04:24;;;;;;;7.65;3.83;;;7.50;99.90;;;;;;5091868;28;20067;-84
2023/05/18 03:06:51;;;;;;;6.18;3.70;;;7.40;99.90;;;;;;5066548;28;20100;-83
2023/05/18 03:09:18;;;;;;;8.55;4.07;;;7.40;99.90;;;;;;5082598;28;20048;-83
2023/05/18 03:11:45;;;;;;;8.02;3.78;;;7.40;99.90;;;;;;5085202;28;20079;-84
2023/05/18 03:14:12;;;;;;;8.90;3.83;;;7.40;99.90;;;;;;5068355;28;20072;-84
2023/05/18 03:16:39;;;;;;;10.40;4.30;;;7.40;99.90;;;;;;5074280;28;20087;-82
2023/05/18 03:19:06;;;;;;;7.32;3.78;;;7.30;99.90;;;;;;5073831;28;20037;-84
2023/05/18 03:21:34;;;;;;;8.07;4.05;;;7.30;99.90;;;;;;5090326;28;20040;-81
2023/05/18 03:24:02;;;;;;;7.90;3.78;;;7.30;99.90;;;;;;5074053;28;20048;-81
2023/05/18 03:26:29;;;;;;;8.45;3.63;;;7.20;99.90;;;;;;5082533;28;20052;-82
2023/05/18 03:28:57;;;;;;;7.35;4.07;;;7.20;99.90;;;;;;5086765;28;20063;-82
2023/05/18 03:31:24;;;;;;;6.47;3.95;;;7.20;99.90;;;;;;5074962;28;20048;-80
2023/05/18 03:33:51;;;;;;;8.40;3.60;;;7.20;99.90;;;;;;5096076;28;20117;-83
2023/05/18 03:36:21;;;;;;;6.95;3.67;;;7.20;99.90;;;;;;5095187;28;20514;-82
2023/05/18 03:38:48;;;;;;;6.35;3.80;;;7.20;99.90;;;;;;5066975;28;20497;-82
2023/05/18 03:41:14;;;;;;;8.32;4.13;;;7.30;99.90;;;;;;5077443;28;20617;-84
2023/05/18 03:43:41;;;;;;;8.55;3.90;;;7.20;99.90;;;;;;5089352;28;20068;-83
2023/05/18 03:46:08;;;;;;;6.15;3.85;;;7.20;99.90;;;;;;5096629;28;20055;-83
2023/05/18 03:48:34;;;;;;;6.13;3.90;;;7.20;99.90;;;;;;5090553;28;20052;-84
2023/05/18 03:51:01;;;;;;;6.75;3.60;;;7.20;99.90;;;;;;5061759;28;20052;-80
2023/05/18 03:53:28;;;;;;;10.02;4.63;;;7.10;99.90;;;;;;5062818;28;20084;-83
2023/05/18 03:55:55;;;;;;;8.85;3.83;;;7.20;99.90;;;;;;5056250;28;20125;-84
2023/05/18 03:58:22;;;;;;;7.68;4.32;;;7.20;99.90;;;;;;5070339;28;20450;-81
2023/05/18 04:00:49;;;;;;;7.82;3.83;;;7.30;99.90;;;;;;5077105;28;20056;-83
2023/05/18 04:03:16;;;;;;;9.25;4.50;;;7.30;99.90;;;;;;5060445;28;20503;-83
2023/05/18 04:05:43;;;;;;;6.60;3.80;;;7.40;99.90;;;;;;5065768;28;20051;-83
2023/05/18 04:08:13;;;;;;;7.32;4.07;;;7.40;99.90;;;;;;5077494;28;20048;-83
2023/05/18 04:10:43;;;;;;;11.55;4.43;;;7.40;99.90;;;;;;5059757;28;20504;-82
2023/05/18 04:13:10;;;;;;;;;;;7.40;99.90;;;;;;5054481;28;20044;-80
2023/05/18 04:15:37;;;;;;;;;;;7.40;99.90;;;;;;5070373;28;19924;-80
2023/05/18 04:18:04;;;;;;;;;;;7.40;99.90;;;;;;5055029;28;19925;-85
2023/05/18 04:20:31;;;;;;;;;;;7.40;99.90;;;;;;5074916;28;19921;-84
2023/05/18 04:22:57;;;;;;;;;;;7.40;99.90;;;;;;5057168;28;19924;-82
2023/05/18 04:25:27;;;;;;;;;;;7.40;99.90;;;;;;5051516;28;20443;-85
2023/05/18 04:27:55;;;;;;;;;;;7.40;99.90;;;;;;5052169;28;19943;-85
2023/05/18 04:30:22;;;;;;;;;;;7.40;99.90;;;;;;5084681;28;19924;-84
2023/05/18 04:32:49;;;;;;;;;;;7.40;99.90;;;;;;5077836;28;19929;-83
2023/05/18 04:35:17;;;;;;;;;;;7.50;99.90;;;;;;5079611;28;19983;-83
2023/05/18 04:37:44;;;;;;;;;;;7.50;99.90;;;;;;5080438;28;19951;-80
2023/05/18 04:40:12;;;;;;;;;;;7.60;99.90;;;;;;5074214;28;20362;-83
2023/05/18 04:42:44;;;;;;;;;;;7.60;99.90;;;;;;5073255;28;19920;-83
2023/05/18 04:45:14;;;;;;;;;;;7.70;99.90;;;;;;5082495;28;19921;-83
2023/05/18 04:47:41;;;;;;;;;;;7.70;99.90;;;;;;5080452;28;19980;-84
2023/05/18 04:50:08;;;;;;;;;;;7.70;99.90;;;;;;5063862;28;19943;-84
2023/05/18 04:52:35;;;;;;;;;;;7.70;99.90;;;;;;5076599;28;19931;-85
2023/05/18 04:55:02;;;;;;;;;;;7.80;99.90;;;;;;5058740;28;19928;-82
2023/05/18 04:57:29;;;;;;;;;;;7.80;99.90;;;;;;5055046;28;19990;-83
2023/05/18 04:59:57;;;;;;;;;;;8.00;99.90;;;;;;5085380;28;19920;-84
2023/05/18 05:02:23;;;;;;;;;;;8.10;99.90;;;;;;5076102;28;19920;-82
2023/05/18 05:04:50;;;;;;;;;;;8.30;99.90;;;;;;5057473;28;19920;-82
2023/05/18 05:07:17;;;;;;;;;;;8.40;99.90;;;;;;5069863;28;20003;-82
2023/05/18 05:09:43;;;;;;;;;;;8.40;99.90;;;;;;5059513;28;19955;-82
2023/05/18 05:12:10;;;;;;;;;;;8.50;99.90;;;;;;5062530;28;19952;-83
2023/05/18 05:14:37;;;;;;;;;;;8.60;99.90;;;;;;5061958;28;19952;-83
2023/05/18 05:17:03;;;;;;;;;;;8.70;99.90;;;;;;5048762;28;19980;-81
2023/05/18 05:19:30;;;;;;;;;;;8.70;99.90;;;;;;5049016;28;19960;-83
2023/05/18 05:21:57;;;;;;;;;;;8.70;99.90;;;;;;5057428;28;19920;-84
2023/05/18 05:24:23;;;;;;;;;;;8.80;99.90;;;;;;5071200;28;19953;-83
2023/05/18 05:26:50;;;;;;;;;;;8.80;99.90;;;;;;5045472;28;19927;-83
2023/05/18 05:29:18;;;;;;;;;;;8.80;99.90;;;;;;5083206;28;19962;-84
2023/05/18 05:31:45;;;;;;;;;;;8.80;99.90;;;;;;5075696;28;19920;-85
2023/05/18 05:34:12;;;;;;;;;;;8.70;99.90;;;;;;5056496;28;19924;-85
2023/05/18 05:36:39;;;;;;;;;;;8.70;99.90;;;;;;5056716;28;19983;-83
2023/05/18 05:39:05;;;;;;;;;;;8.70;99.90;;;;;;5060611;28;19921;-84
2023/05/18 05:41:32;;;;;;;;;;;8.70;99.90;;;;;;5064168;28;19924;-82
2023/05/18 05:43:59;;;;;;;;;;;8.70;99.90;;;;;;5065382;28;19925;-83
2023/05/18 05:46:25;;;;;;;;;;;8.60;99.90;;;;;;5065622;28;19928;-83
2023/05/18 05:48:52;;;;;;;;;;;8.60;99.90;;;;;;5049464;28;19967;-84
2023/05/18 05:51:19;;;;;;;;;;;8.50;99.90;;;;;;5049674;28;20009;-83
2023/05/18 05:53:46;;;;;;;;;;;8.50;99.90;;;;;;5044384;28;20004;-83
2023/05/18 05:56:13;;;;;;;;;;;8.40;99.90;;;;;;5060911;28;19921;-83
2023/05/18 05:58:41;;;;;;;;;;;8.50;99.90;;;;;;5075304;28;19920;-83
2023/05/18 06:01:07;;;;;;;;;;;8.50;99.90;;;;;;5058863;28;19931;-83
2023/05/18 06:03:34;;;;;;;;;;;8.50;99.90;;;;;;5070726;28;19970;-83
2023/05/18 06:06:01;;;;;;;;;;;8.60;99.90;;;;;;5072843;28;19956;-82
2023/05/18 06:08:28;;;;;;;;;;;8.60;99.90;;;;;;5066743;28;19970;-84
2023/05/18 06:10:55;;;;;;;;;;;8.70;99.90;;;;;;5046983;28;19920;-83
2023/05/18 06:13:21;;;;;;;;;;;8.70;99.90;;;;;;5072915;28;20358;-83
2023/05/18 06:15:48;;;;;;;;;;;8.70;99.90;;;;;;5078429;28;19924;-83
2023/05/18 06:18:14;;;;;;;;;;;8.80;99.90;;;;;;5068902;28;19921;-83
2023/05/18 06:20:41;;;;;;;;;;;8.80;99.90;;;;;;5059614;28;19955;-84
2023/05/18 06:23:08;;;;;;;;;;;8.80;99.90;;;;;;5068523;28;19924;-84
2023/05/18 06:25:34;;;;;;;;;;;8.90;99.90;;;;;;5069244;28;19924;-86
2023/05/18 06:28:01;;;;;;;;;;;8.90;99.90;;;;;;5066374;28;19924;-86
2023/05/18 06:30:28;;;;;;;;;;;9.00;99.90;;;;;;5078770;28;19925;-85
2023/05/18 06:32:55;;;;;;;;;;;9.00;99.90;;;;;;5048309;28;19925;-86
2023/05/18 06:35:22;;;;;;;;;;;9.00;99.90;;;;;;5059373;28;20011;-80
2023/05/18 06:37:49;;;;;;;;;;;9.10;99.90;;;;;;5050555;28;19963;-83
2023/05/18 06:40:16;;;;;;;;;;;9.00;99.90;;;;;;5063479;28;19966;-85
2023/05/18 06:42:42;;;;;;;;;;;9.10;99.90;;;;;;5049234;28;19965;-82
2023/05/18 06:45:09;;;;;;;;;;;9.10;99.90;;;;;;5060026;28;20485;-85
2023/05/18 06:47:36;;;;;;;;;;;9.20;99.90;;;;;;5049405;28;19935;-84
2023/05/18 06:50:03;;;;;;;;;;;9.20;99.90;;;;;;5048534;28;20365;-84
2023/05/18 06:52:30;;;;;;;;;;;9.30;99.90;;;;;;5054614;28;19946;-85
2023/05/18 06:54:57;;;;;;;;;;;9.40;99.90;;;;;;5044251;28;19963;-85
2023/05/18 06:57:23;;;;;;;;;;;9.40;99.90;;;;;;5047585;28;19955;-84
2023/05/18 06:59:52;;;;;;;;;;;9.50;99.90;;;;;;5056094;28;20007;-85
2023/05/18 07:02:20;;;;;;;;;;;9.60;99.90;;;;;;5068257;28;19921;-83
2023/05/18 07:04:47;;;;;;;;;;;9.60;99.90;;;;;;5063035;28;19959;-85
2023/05/18 07:07:14;;;;;;;;;;;9.70;99.90;;;;;;5045730;28;19920;-85
2023/05/18 07:09:42;;;;;;;;;;;9.80;99.90;;;;;;5042377;28;19921;-85
2023/05/18 07:12:08;;;;;;;;;;;9.90;99.90;;;;;;5063234;28;19966;-83
2023/05/18 07:14:35;;;;;;;;;;;10.00;99.90;;;;;;5072814;28;19920;-86
2023/05/18 07:17:02;;;;;;;;;;;10.10;99.90;;;;;;5054963;28;19954;-83
2023/05/18 07:19:29;;;;;;;;;;;10.10;99.90;;;;;;5047803;28;19928;-85
2023/05/18 07:21:58;;;;;;;;;;;10.20;99.90;;;;;;5045678;28;19927;-85
2023/05/18 07:24:24;;;;;;;;;;;10.30;99.90;;;;;;5045588;28;19920;-85
2023/05/18 07:26:51;;;;;;;;;;;10.30;99.90;;;;;;5043132;28;19925;-84
2023/05/18 07:29:18;;;;;;;;;;;10.30;99.90;;;;;;5060137;28;20288;-84
2023/05/18 07:31:44;;;;;;;;;;;10.40;99.90;;;;;;5048277;28;19975;-84
2023/05/18 07:34:11;;;;;;;;;;;10.40;99.90;;;;;;5061542;28;21066;-84
2023/05/18 07:36:38;;;;;;;;;;;10.50;99.90;;;;;;5045578;28;20410;-84
2023/05/18 07:39:04;;;;;;;;;;;10.50;99.90;;;;;;5065320;28;20021;-85
2023/05/18 07:41:31;;;;;;;;;;;10.50;99.90;;;;;;5062025;28;19921;-84
2023/05/18 07:43:58;;;;;;;;;;;10.60;99.90;;;;;;5046100;28;20323;-84
2023/05/18 07:46:24;;;;;;;;;;;10.60;99.90;;;;;;5057752;28;19925;-84
2023/05/18 07:48:51;;;;;;;;;;;10.70;99.90;;;;;;5047710;28;19943;-82
2023/05/18 07:51:18;;;;;;;;;;;10.70;99.90;;;;;;5048532;28;19964;-84
2023/05/18 07:53:45;;;;;;;;;;;10.80;99.90;;;;;;5069493;28;19920;-84
2023/05/18 07:56:12;;;;;;;;;;;10.90;99.90;;;;;;5056830;28;19951;-83
2023/05/18 07:58:39;;;;;;;;;;;10.90;99.90;;;;;;5053722;28;19959;-84
2023/05/18 08:01:06;;;;;;;;;;;11.00;99.90;;;;;;5065281;28;19974;-85
2023/05/18 08:03:32;;;;;;;;;;;11.10;99.90;;;;;;5061599;28;19972;-85
2023/05/18 08:05:59;;;;;;;;;;;11.20;99.90;;;;;;5041688;28;19928;-82
2023/05/18 08:08:26;;;;;;;;;;;11.30;99.90;;;;;;5041486;28;19955;-85
2023/05/18 08:10:52;;;;;;;;;;;11.40;99.90;;;;;;5043296;28;19921;-85
2023/05/18 08:13:19;;;;;;;;;;;11.50;99.90;;;;;;5058627;28;19946;-83
2023/05/18 08:15:46;;;;;;;;;;;11.50;99.90;;;;;;5050561;28;19921;-84
2023/05/18 08:18:25;;;;;;;;;;;11.60;99.90;;;;;;5051417;28;19920;-84
2023/05/18 08:20:52;;;;;;;;;;;11.70;99.90;;;;;;5053834;28;19924;-85
2023/05/18 08:23:19;;;;;;;;;;;11.70;99.90;;;;;;5069944;28;20008;-83
2023/05/18 08:25:46;;;;;;;;;;;11.80;99.90;;;;;;5044871;28;20289;-84
2023/05/18 08:28:13;;;;;;;;;;;11.90;99.90;;;;;;5071437;28;19924;-82
2023/05/18 08:30:40;;;;;;;;;;;12.00;99.90;;;;;;5067677;28;19990;-84
2023/05/18 08:33:06;;;;;;;;;;;12.10;99.90;;;;;;5039099;28;19932;-84
2023/05/18 08:35:33;;;;;;;;;;;12.10;99.90;;;;;;5045100;28;19927;-84
2023/05/18 08:38:00;;;;;;;;;;;12.20;99.90;;;;;;5059252;28;20289;-84
2023/05/18 08:40:36;;;;;;;;;;;12.30;99.90;;;;;;5047170;28;19952;-82
2023/05/18 08:43:07;;;;;;;;;;;12.30;99.90;;;;;;5057945;28;19979;-83
2023/05/18 08:45:36;;;;;;;;;;;12.30;99.90;;;;;;5063815;28;19978;-82
2023/05/18 08:48:04;;;;;;;;;;;12.40;99.90;;;;;;5047641;28;20015;-84
2023/05/18 08:50:31;;;;;;;;;;;12.40;99.90;;;;;;5061864;28;19921;-81
2023/05/18 08:53:04;;;;;;;;;;;12.50;99.90;;;;;;5059551;28;19921;-85
2023/05/18 08:55:35;;;;;;;;;;;12.50;99.90;;;;;;5063130;28;19920;-85
2023/05/18 08:58:03;;;;;;;;;;;12.60;99.90;;;;;;5066219;28;19924;-84
2023/05/18 09:00:31;;;;;;;;;;;12.70;99.90;;;;;;5065254;28;19925;-85
2023/05/18 09:02:58;;;;;;;;;;;12.70;99.90;;;;;;5067768;28;20350;-85
2023/05/18 09:05:25;;;;;;;;;;;12.70;99.90;;;;;;5042487;28;19931;-85
2023/05/18 09:07:53;;;;;;;;;;;12.80;99.90;;;;;;5040569;28;19957;-82
2023/05/18 09:10:20;;;;;;;;;;;12.90;99.90;;;;;;5040567;28;19959;-86
2023/05/18 09:12:47;;;;;;;;;;;12.90;99.90;;;;;;5071123;28;19951;-86
2023/05/18 09:15:15;;;;;;;;;;;12.90;99.90;;;;;;5047341;28;19987;-86
2023/05/18 09:17:41;;;;;;;;;;;13.00;99.90;;;;;;5066680;28;19970;-85
2023/05/18 09:20:09;;;;;;;;;;;13.10;99.90;;;;;;5063446;28;19920;-82
2023/05/18 09:22:35;;;;;;;;;;;13.10;99.90;;;;;;5047074;28;19925;-83
2023/05/18 09:25:02;;;;;;;;;;;13.20;99.90;;;;;;5039201;28;20023;-85
2023/05/18 09:27:29;;;;;;;;;;;13.20;99.90;;;;;;5057644;28;19924;-83
2023/05/18 09:29:57;;;;;;;;;;;13.30;99.90;;;;;;5070502;28;19924;-87
2023/05/18 09:32:24;;;;;;;;;;;13.30;99.90;;;;;;5065309;28;19924;-84
2023/05/18 09:34:51;;;;;;;;;;;13.50;99.90;;;;;;5068132;28;19920;-86
2023/05/18 09:37:19;;;;;;;;;;;13.60;99.90;;;;;;5067984;28;19928;-86
2023/05/18 09:39:57;;;;;;;;;;;13.70;99.90;;;;;;5043334;28;19944;-86
2023/05/18 09:42:39;;;;;;;;;;;13.80;99.90;;;;;;5073548;28;19990;-86
2023/05/18 09:45:17;;;;;;;;;;;13.90;99.90;;;;;;5065475;28;19982;-84
2023/05/18 09:47:44;;;;;;;;;;;14.10;99.90;;;;;;5078290;28;19928;-85
2023/05/18 09:50:11;;;;;;;;;;;14.30;99.90;;;;;;5065246;28;19921;-86
2023/05/18 09:52:45;;;;;;;;;;;14.40;99.90;;;;;;5051514;28;19963;-84
2023/05/18 09:55:12;;;;;;;;;;;14.50;99.90;;;;;;5039893;28;19921;-84
2023/05/18 09:57:39;;;;;;;;;;;14.50;99.90;;;;;;5065957;28;19921;-85
2023/05/18 10:00:09;;;;;;;;;;;14.50;99.90;;;;;;5067822;28;20351;-86
2023/05/18 10:02:40;;;;;;;;;;;14.50;99.90;;;;;;5055373;28;19920;-83
2023/05/18 10:05:23;;;;;;;;;;;14.60;99.90;;;;;;5049845;28;19921;-85
2023/05/18 10:07:50;;;;;;;;;;;14.80;99.90;;;;;;5062625;28;19944;-85
2023/05/18 10:10:18;;;;;;;;;;;15.00;99.90;;;;;;5060789;28;19920;-86
2023/05/18 10:12:45;;;;;;;;;;;15.10;99.90;;;;;;5066891;28;20023;-84
2023/05/18 10:15:16;;;;;;;;;;;15.30;99.90;;;;;;5064157;28;20384;-82
2023/05/18 10:17:43;;;;;;;;;;;15.40;99.90;;;;;;5045583;28;19920;-84
2023/05/18 10:20:14;;;;;;;;;;;15.40;99.90;;;;;;5039900;28;19921;-85
2023/05/18 10:22:40;;;;;;;;;;;15.40;99.90;;;;;;5061322;28;19966;-84
2023/05/18 10:25:09;;;;;;;;;;;15.50;99.90;;;;;;5056314;28;20026;-82
2023/05/18 10:27:36;;;;;;;;;;;15.50;99.90;;;;;;5065586;28;19967;-85
2023/05/18 10:30:06;;;;;;;;;;;15.60;99.90;;;;;;5044070;28;19928;-83
2023/05/18 10:32:34;;;;;;;;;;;15.60;99.90;;;;;;5061681;28;20375;-82
2023/05/18 10:35:02;;;;;;;;;;;15.70;99.90;;;;;;5058889;28;19921;-85
2023/05/18 10:37:29;;;;;;;;;;;15.70;99.90;;;;;;5054697;28;20427;-83
2023/05/18 10:39:58;;;;;;;;;;;15.70;99.90;;;;;;5058078;28;19921;-83
2023/05/18 10:42:28;;;;;;;;;;;15.70;99.90;;;;;;5050151;28;20388;-84
2023/05/18 10:44:55;;;;;;;;;;;15.80;99.90;;;;;;5057571;28;20376;-85
2023/05/18 10:47:26;;;;;;;;;;;15.90;99.90;;;;;;5062167;28;19921;-85
2023/05/18 10:49:53;;;;;;;;;;;15.90;99.90;;;;;;5054684;28;19920;-85
2023/05/18 10:52:20;;;;;;;;;;;16.10;99.90;;;;;;5043182;28;19979;-84
2023/05/18 10:54:47;;;;;;;;;;;16.20;99.90;;;;;;5038092;28;19964;-83
2023/05/18 10:57:15;;;;;;;;;;;16.30;99.90;;;;;;5072586;28;19927;-85
2023/05/18 10:59:42;;;;;;;;;;;16.50;99.90;;;;;;5069210;28;19921;-83
2023/05/18 11:02:13;;;;;;;;;;;16.70;99.90;;;;;;5070097;28;19920;-86
2023/05/18 11:04:40;;;;;;;;;;;16.80;99.90;;;;;;5064666;28;19928;-85
2023/05/18 11:07:11;;;;;;;;;;;17.00;99.90;;;;;;5055933;28;19920;-85
2023/05/18 11:09:41;;;;;;;;;;;17.00;99.90;;;;;;5060726;28;19920;-85
2023/05/18 11:12:12;;;;;;;;;;;17.10;99.90;;;;;;5071925;28;20320;-85
2023/05/18 11:14:49;;;;;;;;;;;17.10;99.90;;;;;;5057031;28;19920;-84
2023/05/18 11:17:24;;;;;;;;;;;17.10;99.90;;;;;;5062167;28;19924;-84
2023/05/18 11:20:03;;;;;;;;;;;17.10;99.90;;;;;;5059967;28;19927;-85
2023/05/18 11:22:52;;;;;;;;;;;17.10;99.90;;;;;;5046662;28;20376;-84
2023/05/18 11:25:25;;;;;;;;;;;17.20;99.90;;;;;;5045495;28;19927;-85
2023/05/18 11:27:52;;;;;;;;;;;17.10;99.90;;;;;;5045868;28;19967;-84
2023/05/18 11:30:25;;;;;;;;;;;17.10;99.90;;;;;;5066136;28;19920;-85
2023/05/18 11:32:52;;;;;;;;;;;17.10;99.90;;;;;;5065211;28;20011;-85
2023/05/18 11:35:22;;;;;;;;;;;17.00;99.90;;;;;;5061564;28;19920;-85
2023/05/18 11:37:49;;;;;;;;;;;17.00;99.90;;;;;;5061346;28;19924;-85
2023/05/18 11:40:34;;;;;;;;;;;17.00;99.90;;;;;;5056625;28;19927;-85
2023/05/18 11:43:01;;;;;;;;;;;17.00;99.90;;;;;;5065266;28;19921;-85
2023/05/18 11:45:27;;;;;;;;;;;17.10;99.90;;;;;;5070117;28;19995;-85
2023/05/18 11:48:00;;;;;;;;;;;17.10;99.90;;;;;;5074143;28;20300;-85
2023/05/18 11:50:29;;;;;;;;;;;17.20;99.90;;;;;;5064336;28;19928;-85
2023/05/18 11:52:56;;;;;;;;;;;17.30;99.90;;;;;;5046177;28;19920;-85
2023/05/18 11:55:35;;;;;;;;;;;17.40;99.90;;;;;;5052940;28;19960;-85
2023/05/18 11:58:02;;;;;;;;;;;17.50;99.90;;;;;;5054163;28;19920;-86
2023/05/18 12:00:29;;;;;;;;;;;17.50;99.90;;;;;;5053607;28;19983;-85
2023/05/18 12:02:59;;;;;;;;;;;17.50;99.90;;;;;;5071031;28;19921;-86
2023/05/18 12:05:29;;;;;;;;;;;17.60;99.90;;;;;;5062873;28;19920;-83
2023/05/18 12:07:56;;;;;;;;;;;17.50;99.90;;;;;;5045314;28;19983;-84
2023/05/18 12:10:23;;;;;;;;;;;17.40;99.90;;;;;;5071983;28;20427;-85
2023/05/18 12:12:52;;;;;;;;;;;17.30;99.90;;;;;;5052928;28;19948;-84
2023/05/18 12:15:22;;;;;;;;;;;17.30;99.90;;;;;;5061906;28;19921;-85
2023/05/18 12:17:50;;;;;;;;;;;17.30;99.90;;;;;;5065940;28;19920;-85
2023/05/18 12:20:17;;;;;;;;;;;17.30;99.90;;;;;;5041708;28;20359;-85
2023/05/18 12:22:51;;;;;;;;;;;17.30;99.90;;;;;;5040280;28;20020;-85
2023/05/18 12:25:20;;;;;;;;;;;17.30;99.90;;;;;;5069502;28;20007;-85
2023/05/18 12:27:47;;;;;;;;;;;17.40;99.90;;;;;;5071353;28;19920;-86
2023/05/18 12:30:14;;;;;;;;;;;17.40;99.90;;;;;;5061508;28;19944;-85
2023/05/18 12:32:45;;;;;;;;;;;17.50;99.90;;;;;;5049026;28;19943;-84
2023/05/18 12:35:12;;;;;;;;;;;17.50;99.90;;;;;;5063738;28;19921;-85
2023/05/18 12:37:45;;;;;;;;;;;17.60;99.90;;;;;;5046117;28;20535;-84
2023/05/18 12:40:12;;;;;;;;;;;17.60;99.90;;;;;;5066429;28;19920;-84
2023/05/18 12:42:39;;;;;;;;;;;17.70;99.90;;;;;;5067295;28;20062;-85
2023/05/18 12:45:06;;;;;;;;;;;17.80;99.90;;;;;;5066354;28;20282;-85
2023/05/18 12:47:39;;;;;;;;;;;17.90;99.90;;;;;;5048511;28;19927;-84
2023/05/18 12:50:06;;;;;;;;;;;17.90;99.90;;;;;;5048042;28;20011;-85
2023/05/18 12:52:33;;;;;;;;;;;17.90;99.90;;;;;;5065948;28;20296;-84
2023/05/18 12:54:59;;;;;;;;;;;17.90;99.90;;;;;;5064226;28;19963;-85
2023/05/18 12:57:29;;;;;;;;;;;17.90;99.90;;;;;;5057605;28;19924;-85
2023/05/18 12:59:56;;;;;;;;;;;17.90;99.90;;;;;;5070861;28;19959;-86
2023/05/18 13:02:25;;;;;;;;;;;18.00;99.90;;;;;;5042998;28;19928;-85
2023/05/18 13:05:09;;;;;;;;;;;17.90;99.90;;;;;;5041964;28;19925;-85
2023/05/18 13:07:36;;;;;;;;;;;17.80;99.90;;;;;;5062003;28;19943;-85
2023/05/18 13:10:10;;;;;;;;;;;17.80;99.90;;;;;;5066684;28;19924;-85
2023/05/18 13:12:44;;;;;;;;;;;17.80;99.90;;;;;;5068204;28;19967;-85
2023/05/18 13:15:18;;;;;;;;;;;17.90;99.90;;;;;;5045790;28;20299;-82
2023/05/18 13:17:58;;;;;;;;;;;17.90;99.90;;;;;;5069144;28;19982;-85
2023/05/18 13:20:39;;;;;;;;;;;17.90;99.90;;;;;;5062489;28;19924;-84
2023/05/18 13:23:13;;;;;;;;;;;17.90;99.90;;;;;;5060469;28;19927;-85
2023/05/18 13:25:40;;;;;;;;;;;17.90;99.90;;;;;;5071767;28;19931;-85
2023/05/18 13:28:09;;;;;;;;;;;17.80;99.90;;;;;;5073307;28;19990;-85
2023/05/18 13:30:36;;;;;;;;;;;17.80;99.90;;;;;;5050102;28;19992;-84
2023/05/18 13:33:04;;;;;;;;;;;17.80;99.90;;;;;;5062347;28;20408;-86
2023/05/18 13:35:31;;;;;;;;;;;17.70;99.90;;;;;;5058338;28;19924;-87
2023/05/18 13:37:58;;;;;;;;;;;17.70;99.90;;;;;;5044633;28;20653;-85
2023/05/18 13:40:25;;;;;;;;;;;17.60;99.90;;;;;;5070360;28;19921;-85
2023/05/18 13:42:51;;;;;;;;;;;17.60;99.90;;;;;;5052998;28;20020;-86
2023/05/18 13:45:20;;;;;;;;;;;17.60;99.90;;;;;;5065374;28;19927;-85
2023/05/18 13:47:50;;;;;;;;;;;17.60;99.90;;;;;;5064442;28;19924;-84
2023/05/18 13:50:18;;;;;;;;;;;17.50;99.90;;;;;;5067995;28;20481;-83
2023/05/18 13:52:46;;;;;;;;;;;17.50;99.90;;;;;;5060040;28;19921;-85
2023/05/18 13:55:13;;;;;;;;;;;17.50;99.90;;;;;;5062039;28;19934;-84
2023/05/18 13:57:40;;;;;;;;;;;17.60;99.90;;;;;;5073895;28;19970;-83
2023/05/18 14:00:12;;;;;;;;;;;17.60;99.90;;;;;;5053340;28;19926;-85
2023/05/18 14:02:39;;;;;;;;;;;17.60;99.90;;;;;;5067320;28;19924;-86
2023/05/18 14:05:09;;;;;;;;;;;17.60;99.90;;;;;;5045660;28;19935;-86